| time (UTC) | temp F | wind direction | speed MPH | gust MPH | rain 1hr in | rain 24hr in | rain mn in | humidity % | barometer mb |
| 20260906070451 | 45 | 323 | 15.0 | 27.0 | 0.00 | 0.01 | 0.00 | 77 | 1001.6 |
| 20260906064452 | 45 | 323 | 12.0 | 25.0 | 0.00 | 0.01 | 0.00 | 82 | 1001.3 |
| 20260906062452 | 45 | 326 | 14.0 | 24.0 | 0.00 | 0.01 | 0.00 | 80 | 1001.0 |
| 20260906060451 | 45 | 325 | 15.0 | 28.0 | 0.00 | 0.01 | 0.00 | 80 | 1000.9 |
| 20260906054452 | 45 | 326 | 13.0 | 23.0 | 0.00 | 0.01 | 0.00 | 83 | 1000.8 |
| 20260906050452 | 44 | 311 | 13.0 | 20.0 | 0.00 | 0.01 | 0.00 | 87 | 1000.3 |
| 20260906044453 | 44 | 314 | 13.0 | 21.0 | 0.00 | 0.01 | 0.00 | 86 | 1000.2 |
| 20260906042452 | 45 | 318 | 11.0 | 18.0 | 0.00 | 0.01 | 0.00 | 85 | 1000.1 |
| 20260906040451 | 45 | 327 | 13.0 | 23.0 | 0.00 | 0.01 | 0.00 | 81 | 1000.0 |
| 20260906034452 | 45 | 318 | 11.0 | 20.0 | 0.00 | 0.01 | 0.00 | 82 | 999.8 |
| 20260906032451 | 45 | 327 | 16.0 | 26.0 | 0.00 | 0.01 | 0.00 | 79 | 999.7 |
| 20260906030452 | 45 | 317 | 12.0 | 26.0 | 0.00 | 0.01 | 0.00 | 80 | 999.5 |
| 20260906024451 | 46 | 325 | 13.0 | 25.0 | 0.00 | 0.01 | 0.00 | 79 | 999.4 |
| 20260906020451 | 46 | 307 | 12.0 | 21.0 | 0.00 | 0.01 | 0.00 | 80 | 999.2 |
| 20260906010452 | 47 | 303 | 11.0 | 26.0 | 0.00 | 0.01 | 0.00 | 79 | 998.8 |
| 20260906004452 | 48 | 301 | 10.0 | 21.0 | 0.00 | 0.01 | 0.00 | 80 | 998.8 |
| 20260906002451 | 48 | 312 | 9.0 | 20.0 | 0.00 | 0.01 | 0.00 | 81 | 998.7 |
| 20260906000451 | 48 | 316 | 11.0 | 19.0 | 0.00 | 0.01 | 0.00 | 82 | 998.5 |
| 20260905234451 | 48 | 336 | 12.0 | 21.0 | 0.00 | 0.01 | 0.00 | 79 | 998.6 |
| 20260905232451 | 47 | 328 | 13.0 | 25.0 | 0.00 | 0.01 | 0.00 | 79 | 998.7 |
| 20260905230451 | 47 | 330 | 15.0 | 26.0 | 0.00 | 0.01 | 0.00 | 80 | 998.7 |
| 20260905224451 | 49 | 324 | 13.0 | 24.0 | 0.00 | 0.01 | 0.00 | 83 | 998.3 |
| 20260905222449 | 49 | 324 | 12.0 | 21.0 | 0.00 | 0.01 | 0.00 | 81 | 998.2 |
| 20260905220450 | 49 | 326 | 12.0 | 21.0 | 0.00 | 0.01 | 0.00 | 85 | 998.2 |
| 20260905214451 | 49 | 323 | 11.0 | 21.0 | 0.00 | 0.01 | 0.00 | 81 | 998.0 |
| 20260905212450 | 50 | 321 | 14.0 | 22.0 | 0.00 | 0.01 | 0.00 | 83 | 997.9 |
| 20260905210450 | 51 | 328 | 11.0 | 19.0 | 0.00 | 0.01 | 0.00 | 82 | 997.7 |
| 20260905204450 | 51 | 327 | 14.0 | 23.0 | 0.00 | 0.01 | 0.01 | 80 | 997.6 |
| 20260905202450 | 51 | 326 | 11.0 | 22.0 | 0.00 | 0.01 | 0.01 | 79 | 997.5 |
| 20260905200451 | 51 | 326 | 12.0 | 20.0 | 0.00 | 0.01 | 0.01 | 79 | 997.4 |
| 20260905194450 | 52 | 327 | 11.0 | 19.0 | 0.00 | 0.01 | 0.01 | 81 | 997.2 |
| 20260905192451 | 52 | 327 | 9.0 | 20.0 | 0.00 | 0.01 | 0.01 | 83 | 997.2 |
| 20260905184451 | 52 | 325 | 9.0 | 15.0 | 0.00 | 0.01 | 0.01 | 87 | 997.0 |
| 20260905182449 | 54 | 329 | 8.0 | 14.0 | 0.00 | 0.01 | 0.01 | 83 | 996.7 |
| 20260905180448 | 54 | 334 | 8.0 | 15.0 | 0.00 | 0.01 | 0.01 | 83 | 996.6 |
| 20260905174448 | 54 | 326 | 10.0 | 17.0 | 0.00 | 0.01 | 0.01 | 81 | 996.5 |
| 20260905172449 | 54 | 326 | 9.0 | 15.0 | 0.00 | 0.01 | 0.01 | 81 | 996.2 |
| 20260905170449 | 54 | 325 | 9.0 | 14.0 | 0.00 | 0.01 | 0.01 | 79 | 995.9 |
| 20260905164450 | 55 | 325 | 9.0 | 13.0 | 0.00 | 0.01 | 0.01 | 78 | 995.7 |
| 20260905162451 | 55 | 323 | 8.0 | 12.0 | 0.00 | 0.01 | 0.01 | 76 | 995.6 |
| 20260905154450 | 55 | 326 | 7.0 | 13.0 | 0.00 | 0.01 | 0.01 | 74 | 995.3 |
| 20260905152451 | 56 | 321 | 6.0 | 13.0 | 0.00 | 0.01 | 0.01 | 73 | 995.1 |
| 20260905144449 | 57 | 303 | 9.0 | 20.0 | 0.00 | 0.01 | 0.01 | 72 | 994.8 |
| 20260905142449 | 58 | 303 | 6.0 | 11.0 | 0.00 | 0.01 | 0.01 | 70 | 994.6 |
| 20260905140450 | 58 | 314 | 5.0 | 8.0 | 0.00 | 0.01 | 0.01 | 71 | 994.5 |
| 20260905130451 | 56 | 296 | 4.0 | 9.0 | 0.00 | 0.00 | 0.00 | 79 | 994.3 |
| 20260905122449 | 55 | 320 | 4.0 | 10.0 | 0.00 | 0.00 | 0.00 | 85 | 994.2 |
| 20260905120448 | 57 | 317 | 9.0 | 14.0 | 0.00 | 0.00 | 0.00 | 70 | 994.1 |
| 20260905112450 | 57 | 329 | 7.0 | 13.0 | 0.00 | 0.00 | 0.00 | 66 | 993.8 |
| 20260905110448 | 56 | 317 | 8.0 | 13.0 | 0.00 | 0.00 | 0.00 | 71 | 993.8 |
| 20260905104448 | 57 | 323 | 7.0 | 11.0 | 0.00 | 0.00 | 0.00 | 74 | 993.6 |
| 20260905102449 | 57 | 318 | 8.0 | 11.0 | 0.00 | 0.00 | 0.00 | 72 | 993.5 |
| 20260905100448 | 56 | 312 | 6.0 | 11.0 | 0.00 | 0.00 | 0.00 | 75 | 993.5 |
| 20260905094447 | 55 | 331 | 6.0 | 10.0 | 0.00 | 0.00 | 0.00 | 81 | 993.4 |
| 20260905092448 | 56 | 322 | 7.0 | 13.0 | 0.00 | 0.00 | 0.00 | 80 | 993.4 |
| 20260905090448 | 55 | 317 | 8.0 | 13.0 | 0.00 | 0.00 | 0.00 | 82 | 993.4 |
| 20260905084448 | 55 | 336 | 4.0 | 11.0 | 0.00 | 0.00 | 0.00 | 84 | 993.2 |
| 20260905082450 | 55 | 315 | 5.0 | 10.0 | 0.00 | 0.00 | 0.00 | 83 | 993.2 |
| 20260905080447 | 55 | 303 | 5.0 | 9.0 | 0.00 | 0.00 | 0.00 | 82 | 993.2 |
| 20260905074447 | 55 | 308 | 5.0 | 9.0 | 0.00 | 0.00 | 0.00 | 83 | 993.1 |
| 20260905072447 | 55 | 278 | 3.0 | 5.0 | 0.00 | 0.00 | 0.00 | 84 | 993.1 |